Time;durP1;ratioP1;P1;durP2;ratioP2;P2;SDS_P1;SDS_P2;PMS_P1;PMS_P2;Temp;Humidity;BMP_temperature;BMP_pressure;BME280_temperature;BME280_humidity;BME280_pressure;Samples;Min_cycle;Max_cycle;Signal;HPM_P1;HPM_P2
2022/07/25 00:00:24;;;;;;;5.80;4.85;;;;;;;22.03;53.47;95784.31;5084677;28;20028;-72
2022/07/25 00:02:49;;;;;;;4.47;4.18;;;;;;;21.99;53.74;95785.75;5088135;28;20540;-72
2022/07/25 00:05:15;;;;;;;5.35;4.93;;;;;;;21.93;54.94;95785.78;5088605;28;20016;-72
2022/07/25 00:07:40;;;;;;;4.63;4.32;;;;;;;21.87;52.96;95785.56;5088132;28;20028;-72
2022/07/25 00:10:06;;;;;;;4.88;4.47;;;;;;;21.82;54.03;95784.59;5075420;28;20145;-72
2022/07/25 00:12:32;;;;;;;4.47;4.18;;;;;;;21.70;54.15;95779.06;5068094;28;20120;-72
2022/07/25 00:14:58;;;;;;;5.18;4.72;;;;;;;21.69;54.19;95783.56;5066544;28;20104;-73
2022/07/25 00:17:23;;;;;;;5.47;5.07;;;;;;;21.70;54.60;95771.81;5069926;28;20066;-72
2022/07/25 00:19:48;;;;;;;5.05;4.65;;;;;;;21.69;55.28;95775.53;5071502;28;20056;-72
2022/07/25 00:22:14;;;;;;;6.03;5.45;;;;;;;21.64;55.50;95778.00;5069564;28;20576;-72
2022/07/25 00:24:39;;;;;;;5.78;5.35;;;;;;;21.63;55.13;95772.84;5067611;28;20017;-72
2022/07/25 00:27:05;;;;;;;5.30;4.90;;;;;;;21.65;55.07;95770.81;5070494;28;20107;-72
2022/07/25 00:29:30;;;;;;;5.95;5.38;;;;;;;21.57;56.50;95769.97;5071555;28;20020;-72
2022/07/25 00:31:56;;;;;;;6.95;6.35;;;;;;;21.50;56.44;95769.19;5071323;28;20024;-72
2022/07/25 00:34:21;;;;;;;5.80;5.38;;;;;;;21.50;55.33;95769.19;5071524;28;20021;-72
2022/07/25 00:36:46;;;;;;;5.50;5.00;;;;;;;21.52;55.88;95764.44;5068179;28;20036;-72
2022/07/25 00:39:12;;;;;;;5.35;4.88;;;;;;;21.40;55.97;95766.09;5071145;28;20490;-72
2022/07/25 00:41:37;;;;;;;5.88;4.68;;;;;;;21.38;55.78;95766.31;5071113;28;20036;-72
2022/07/25 00:44:03;;;;;;;8.23;4.72;;;;;;;21.35;56.61;95766.72;5070967;28;20456;-72
2022/07/25 00:46:28;;;;;;;5.32;4.93;;;;;;;21.32;57.00;95765.28;5071338;28;20373;-72
2022/07/25 00:48:54;;;;;;;5.72;5.22;;;;;;;21.26;57.17;95759.94;5071260;28;20115;-72
2022/07/25 00:51:19;;;;;;;5.20;4.80;;;;;;;21.18;57.02;95760.97;5071438;28;20494;-72
2022/07/25 00:53:45;;;;;;;4.95;4.65;;;;;;;21.19;55.87;95751.91;5071532;28;20029;-72
2022/07/25 00:56:11;;;;;;;5.25;4.85;;;;;;;21.22;55.78;95754.19;5071669;28;20192;-72
2022/07/25 00:58:36;;;;;;;5.25;4.75;;;;;;;21.21;56.83;95759.75;5091202;28;20063;-72
2022/07/25 01:01:03;;;;;;;5.55;5.15;;;;;;;21.16;58.71;95755.84;5088879;28;20107;-72
2022/07/25 01:03:28;;;;;;;5.65;5.15;;;;;;;21.14;57.88;95752.53;5065515;28;20051;-72
2022/07/25 01:05:53;;;;;;;6.53;5.55;;;;;;;21.13;57.45;95756.25;5071528;28;20052;-72
2022/07/25 01:08:21;;;;;;;5.88;5.47;;;;;;;21.09;57.27;95744.28;5088815;28;20016;-72
2022/07/25 01:10:47;;;;;;;6.28;5.35;;;;;;;21.00;59.37;95746.38;5071540;28;20530;-72
2022/07/25 01:13:14;;;;;;;5.57;5.18;;;;;;;20.99;59.20;95747.38;5070539;28;20020;-72
2022/07/25 01:15:39;;;;;;;5.60;5.20;;;;;;;21.01;58.11;95745.34;5075815;28;20078;-72
2022/07/25 01:18:05;;;;;;;5.93;5.43;;;;;;;21.03;58.64;95750.47;5090984;28;20487;-72
2022/07/25 01:20:32;;;;;;;6.40;5.90;;;;;;;20.97;59.82;95752.13;5087633;28;20035;-71
2022/07/25 01:22:59;;;;;;;5.78;5.32;;;;;;;20.87;59.26;95755.22;5058049;28;20055;-72
2022/07/25 01:25:26;;;;;;;5.47;5.10;;;;;;;20.86;59.77;95761.59;5085215;28;20629;-72
2022/07/25 01:27:52;;;;;;;6.13;5.72;;;;;;;20.85;59.60;95765.28;5061901;28;20451;-72
2022/07/25 01:30:19;;;;;;;6.30;5.82;;;;;;;20.82;59.62;95755.00;5069283;28;20024;-72
2022/07/25 01:32:45;;;;;;;5.35;4.95;;;;;;;20.70;60.17;95756.63;5080420;28;20028;-72
2022/07/25 01:35:12;;;;;;;5.88;5.47;;;;;;;20.74;59.80;95750.66;5088237;28;20024;-72
2022/07/25 01:37:37;;;;;;;6.20;5.70;;;;;;;20.74;59.97;95753.31;5091098;28;20031;-72
2022/07/25 01:40:04;;;;;;;6.05;5.55;;;;;;;20.78;59.52;95752.91;5091866;28;20414;-72
2022/07/25 01:42:30;;;;;;;6.40;5.90;;;;;;;20.79;59.91;95751.91;5091668;28;20012;-71
2022/07/25 01:44:55;;;;;;;8.27;5.85;;;;;;;20.76;59.72;95753.94;5091912;28;20505;-72
2022/07/25 01:47:21;;;;;;;5.60;5.20;;;;;;;20.77;60.36;95754.78;5087937;28;20027;-72
2022/07/25 01:49:46;;;;;;;6.05;5.65;;;;;;;20.78;61.70;95753.75;5090840;28;20471;-71
2022/07/25 01:52:12;;;;;;;7.32;6.60;;;;;;;20.77;60.63;95757.44;5067645;28;20032;-71
2022/07/25 01:54:39;;;;;;;6.35;5.85;;;;;;;20.79;59.24;95747.38;5071496;28;20033;-72
2022/07/25 01:57:05;;;;;;;6.57;5.95;;;;;;;20.80;58.89;95751.72;5071218;28;20032;-71
2022/07/25 01:59:31;;;;;;;5.75;5.35;;;;;;;20.78;59.02;95753.75;5053188;28;20496;-72
2022/07/25 02:01:57;;;;;;;5.57;5.18;;;;;;;20.78;59.34;95756.41;5071101;28;20032;-72
2022/07/25 02:04:23;;;;;;;6.22;5.70;;;;;;;20.74;59.34;95763.22;5071367;28;20484;-71
2022/07/25 02:06:48;;;;;;;6.43;5.93;;;;;;;20.69;59.39;95754.97;5071153;28;20469;-71
2022/07/25 02:09:14;;;;;;;6.72;6.13;;;;;;;20.65;60.12;95748.38;5071142;28;20023;-71
2022/07/25 02:11:39;;;;;;;7.07;6.57;;;;;;;20.58;60.50;95751.06;5071228;28;20381;-71
2022/07/25 02:14:04;;;;;;;6.90;6.40;;;;;;;20.53;60.62;95756.16;5070329;28;20032;-71
2022/07/25 02:16:30;;;;;;;6.63;6.03;;;;;;;20.55;60.84;95754.94;5060013;28;20063;-71
2022/07/25 02:18:55;;;;;;;6.47;6.00;;;;;;;20.52;61.01;95752.69;5071222;28;20069;-71
2022/07/25 02:21:21;;;;;;;8.02;6.20;;;;;;;20.51;60.94;95752.88;5070474;28;20028;-71
2022/07/25 02:23:46;;;;;;;6.25;5.85;;;;;;;20.44;61.17;95759.06;5077839;28;20498;-71
2022/07/25 02:26:12;;;;;;;6.82;6.22;;;;;;;20.41;61.19;95755.94;5076899;28;20103;-71
2022/07/25 02:28:39;;;;;;;6.00;5.50;;;;;;;20.35;62.61;95749.59;5070633;28;20021;-71
2022/07/25 02:31:04;;;;;;;6.00;5.50;;;;;;;20.26;62.19;95753.44;5070013;28;20024;-71
2022/07/25 02:33:30;;;;;;;6.65;6.10;;;;;;;20.18;62.50;95754.44;5070455;28;20388;-71
2022/07/25 02:35:55;;;;;;;6.47;5.90;;;;;;;20.22;61.97;95747.66;5070644;28;20025;-71
2022/07/25 02:38:21;;;;;;;6.35;5.40;;;;;;;20.25;62.24;95749.97;5070296;28;20029;-71
2022/07/25 02:40:50;;;;;;;6.50;5.90;;;;;;;20.22;63.45;95747.66;5070457;28;20107;-71
2022/07/25 02:43:17;;;;;;;6.55;5.95;;;;;;;20.16;63.14;95746.66;5069373;28;20495;-71
2022/07/25 02:45:42;;;;;;;6.43;5.93;;;;;;;20.13;62.70;95747.06;5070498;28;20021;-71
2022/07/25 02:48:08;;;;;;;6.72;6.13;;;;;;;20.15;62.48;95749.50;5069749;28;20077;-70
2022/07/25 02:50:33;;;;;;;6.53;6.03;;;;;;;20.12;62.51;95747.25;5070049;28;20494;-71
2022/07/25 02:52:59;;;;;;;6.97;5.90;;;;;;;20.08;63.18;95759.38;5070398;28;20052;-71
2022/07/25 02:55:24;;;;;;;6.43;5.93;;;;;;;20.00;63.22;95763.03;5070062;28;20020;-71
2022/07/25 02:57:50;;;;;;;6.47;5.93;;;;;;;19.89;66.21;95759.06;5069949;28;20044;-71
2022/07/25 03:00:16;;;;;;;6.57;6.03;;;;;;;19.82;64.60;95755.53;5064407;28;20013;-71
2022/07/25 03:02:41;;;;;;;6.18;5.68;;;;;;;19.87;63.74;95755.75;5070073;28;20063;-71
2022/07/25 03:05:12;;;;;;;6.57;6.10;;;;;;;19.95;63.74;95754.78;5069769;28;20430;-71
2022/07/25 03:07:37;;;;;;;6.57;6.07;;;;;;;19.92;64.08;95753.34;5066067;28;20112;-71
2022/07/25 03:10:05;;;;;;;8.30;7.50;;;;;;;19.92;63.90;95749.84;5069890;28;20111;-71
2022/07/25 03:12:33;;;;;;;7.00;6.30;;;;;;;19.83;64.50;95755.31;5069933;28;20547;-71
2022/07/25 03:15:00;;;;;;;6.47;5.88;;;;;;;19.79;63.89;95755.94;5070126;28;20031;-71
2022/07/25 03:17:27;;;;;;;7.30;6.28;;;;;;;19.85;64.08;95749.78;5069737;28;20130;-71
2022/07/25 03:19:53;;;;;;;7.75;6.68;;;;;;;19.81;65.66;95757.38;5069362;28;20028;-71
2022/07/25 03:22:18;;;;;;;14.23;12.75;;;;;;;19.74;65.45;95757.34;5069451;28;20577;-71
2022/07/25 03:24:44;;;;;;;8.68;7.95;;;;;;;19.72;64.98;95759.38;5083109;28;20021;-71
2022/07/25 03:27:09;;;;;;;9.27;8.07;;;;;;;19.63;65.23;95752.56;5069747;28;20032;-72
2022/07/25 03:29:35;;;;;;;8.63;7.22;;;;;;;19.59;64.89;95759.31;5069679;28;20814;-71
2022/07/25 03:32:00;;;;;;;6.68;6.07;;;;;;;19.67;64.46;95753.81;5068168;28;20024;-71
2022/07/25 03:34:26;;;;;;;6.35;5.93;;;;;;;19.69;65.10;95751.75;5069470;28;20017;-71
2022/07/25 03:36:51;;;;;;;6.05;5.60;;;;;;;19.65;64.96;95750.53;5069383;28;20099;-71
2022/07/25 03:39:17;;;;;;;6.72;6.22;;;;;;;19.60;65.68;95755.63;5069254;28;20020;-71
2022/07/25 03:41:42;;;;;;;6.50;6.00;;;;;;;19.55;64.90;95753.53;5067821;28;20483;-71
2022/07/25 03:44:08;;;;;;;6.78;5.97;;;;;;;19.53;65.34;95752.91;5069219;28;20013;-71
2022/07/25 03:46:33;;;;;;;8.80;6.95;;;;;;;19.52;65.60;95753.09;5069787;28;20028;-71
2022/07/25 03:48:59;;;;;;;6.95;6.45;;;;;;;19.51;65.86;95752.28;5069222;28;20052;-71
2022/07/25 03:51:24;;;;;;;6.97;6.35;;;;;;;19.49;65.79;95753.50;5068585;28;20498;-71
2022/07/25 03:54:02;;;;;;;6.57;6.07;;;;;;;19.47;65.84;95759.06;5079189;28;20023;-71
2022/07/25 03:56:35;;;;;;;6.78;5.70;;;;;;;19.51;65.13;95756.81;5080942;28;20466;-70
2022/07/25 03:59:00;;;;;;;6.55;6.05;;;;;;;19.43;65.81;95763.94;5063344;28;20032;-71
2022/07/25 04:01:25;;;;;;;6.80;6.20;;;;;;;19.37;65.84;95762.06;5071085;28;20081;-71
2022/07/25 04:03:51;;;;;;;6.97;6.47;;;;;;;19.37;66.52;95764.75;5073315;28;20025;-71
2022/07/25 04:06:17;;;;;;;7.25;6.65;;;;;;;19.31;66.58;95765.50;5073013;28;20029;-71
2022/07/25 04:08:42;;;;;;;7.20;6.53;;;;;;;19.30;66.69;95763.84;5073479;28;20502;-71
2022/07/25 04:11:08;;;;;;;7.22;6.53;;;;;;;19.35;66.29;95763.28;5073125;28;20028;-72
2022/07/25 04:13:33;;;;;;;6.93;6.32;;;;;;;19.29;66.63;95763.03;5073517;28;20028;-72
2022/07/25 04:15:59;;;;;;;7.15;6.35;;;;;;;19.23;66.90;95765.66;5071973;28;20032;-71
2022/07/25 04:18:24;;;;;;;7.07;6.38;;;;;;;19.20;66.50;95768.72;5073256;28;20115;-71
2022/07/25 04:20:49;;;;;;;8.57;7.78;;;;;;;19.21;67.21;95765.03;5072722;28;20115;-71
2022/07/25 04:23:15;;;;;;;17.90;6.43;;;;;;;19.18;67.13;95759.06;5075219;28;20093;-71
2022/07/25 04:25:40;;;;;;;10.20;9.02;;;;;;;19.25;66.91;95771.63;5073976;28;20090;-72
2022/07/25 04:28:05;;;;;;;10.30;9.43;;;;;;;19.26;67.28;95771.44;5072693;28;20498;-72
2022/07/25 04:30:31;;;;;;;12.07;10.27;;;;;;;19.31;67.27;95771.69;5072619;28;20071;-72
2022/07/25 04:32:56;;;;;;;7.38;6.70;;;;;;;19.29;66.87;95773.72;5072608;28;20040;-71
2022/07/25 04:35:22;;;;;;;7.30;6.65;;;;;;;19.31;67.20;95776.19;5072520;28;20024;-71
2022/07/25 04:37:48;;;;;;;7.28;6.57;;;;;;;19.32;66.73;95773.31;5072610;28;20039;-71
2022/07/25 04:40:13;;;;;;;7.22;6.60;;;;;;;19.33;67.41;95768.78;5072406;28;20027;-71
2022/07/25 04:42:38;;;;;;;9.95;6.72;;;;;;;19.31;67.24;95760.16;5072840;28;20040;-71
2022/07/25 04:45:04;;;;;;;6.78;6.28;;;;;;;19.35;67.20;95766.78;5084616;28;20478;-71
2022/07/25 04:47:30;;;;;;;7.28;6.38;;;;;;;19.28;67.97;95766.75;5072592;28;20083;-71
2022/07/25 04:49:55;;;;;;;6.97;6.38;;;;;;;19.24;67.21;95767.31;5073833;28;20490;-72
2022/07/25 04:52:20;;;;;;;7.20;6.50;;;;;;;19.30;67.50;95764.69;5085281;28;20059;-71
2022/07/25 04:54:46;;;;;;;7.18;6.50;;;;;;;19.33;67.51;95758.13;5070534;28;20021;-71
2022/07/25 04:57:11;;;;;;;11.45;10.25;;;;;;;19.41;67.47;95755.31;5080913;28;20051;-71
2022/07/25 04:59:37;;;;;;;7.25;6.63;;;;;;;19.34;68.66;95749.09;5083103;28;20474;-71
2022/07/25 05:02:02;;;;;;;7.55;6.85;;;;;;;19.32;67.82;95743.97;5087817;28;20035;-71
2022/07/25 05:04:28;;;;;;;7.30;6.60;;;;;;;19.37;67.24;95748.72;5088099;28;20024;-71
2022/07/25 05:06:53;;;;;;;7.00;6.50;;;;;;;19.39;66.96;95754.69;5089101;28;20016;-72
2022/07/25 05:09:19;;;;;;;7.22;6.25;;;;;;;19.50;66.71;95752.47;5085523;28;20481;-72
2022/07/25 05:11:44;;;;;;;7.25;6.65;;;;;;;19.43;66.99;95747.94;5078165;28;20036;-71
2022/07/25 05:14:09;;;;;;;7.05;6.55;;;;;;;19.41;68.10;95747.31;5064233;28;20125;-71
2022/07/25 05:16:34;;;;;;;7.47;6.75;;;;;;;19.39;67.73;95748.50;5075340;28;20475;-71
2022/07/25 05:19:00;;;;;;;8.60;6.50;;;;;;;19.35;67.96;95753.44;5084045;28;20373;-71
2022/07/25 05:21:26;;;;;;;7.88;6.70;;;;;;;19.36;67.75;95757.75;5069019;28;20048;-72
2022/07/25 05:23:51;;;;;;;11.98;7.18;;;;;;;19.41;67.19;95755.31;5079273;28;20024;-71
2022/07/25 05:26:17;;;;;;;7.18;6.43;;;;;;;19.51;67.54;95757.63;5071842;28;20023;-72
2022/07/25 05:28:42;;;;;;;15.68;7.28;;;;;;;19.58;67.82;95760.34;5072061;28;20032;-72
2022/07/25 05:31:08;;;;;;;7.15;6.57;;;;;;;19.67;67.62;95763.66;5050640;28;20114;-67
2022/07/25 05:33:33;;;;;;;10.65;6.80;;;;;;;19.79;67.15;95767.44;5071697;28;20052;-69
2022/07/25 05:35:58;;;;;;;9.85;6.70;;;;;;;19.94;67.13;95770.00;5071046;28;20037;-72
2022/07/25 05:38:24;;;;;;;14.05;6.72;;;;;;;20.04;67.35;95769.63;5069038;28;20508;-72
2022/07/25 05:40:51;;;;;;;8.82;6.72;;;;;;;20.17;66.89;95769.69;5082415;28;20026;-73
2022/07/25 05:43:16;;;;;;;10.60;7.15;;;;;;;20.33;65.50;95764.97;5066027;28;20025;-72
2022/07/25 05:45:42;;;;;;;6.90;6.40;;;;;;;20.50;64.57;95775.31;5074677;28;20028;-70
2022/07/25 05:48:08;;;;;;;7.07;6.35;;;;;;;20.63;63.66;95761.13;5084162;28;20544;-71
2022/07/25 05:50:35;;;;;;;11.30;7.13;;;;;;;20.73;64.55;95770.41;5084579;28;20024;-75
2022/07/25 05:53:01;;;;;;;7.13;6.43;;;;;;;20.72;64.21;95770.63;5086594;28;20088;-72
2022/07/25 05:55:26;;;;;;;7.60;7.00;;;;;;;20.73;64.48;95769.59;5085699;28;20404;-72
2022/07/25 05:57:52;;;;;;;8.05;6.85;;;;;;;20.79;64.43;95768.75;5085889;28;20040;-72
2022/07/25 06:00:17;;;;;;;7.18;6.47;;;;;;;20.88;64.39;95766.75;5085547;28;20504;-72
2022/07/25 06:02:43;;;;;;;11.10;6.82;;;;;;;20.97;62.98;95767.38;5083530;28;20052;-75
2022/07/25 06:05:08;;;;;;;7.22;6.50;;;;;;;21.12;62.52;95770.66;5085063;28;20031;-72
2022/07/25 06:07:34;;;;;;;6.50;5.88;;;;;;;21.28;61.03;95773.94;5084181;28;20727;-71
2022/07/25 06:09:59;;;;;;;7.32;6.38;;;;;;;21.35;60.02;95772.09;5085985;28;20094;-73
2022/07/25 06:12:24;;;;;;;6.38;5.88;;;;;;;21.46;59.36;95770.63;5085737;28;20097;-74
2022/07/25 06:14:50;;;;;;;7.28;6.30;;;;;;;21.61;58.75;95767.72;5085667;28;20106;-71
2022/07/25 06:17:15;;;;;;;6.80;5.70;;;;;;;21.78;58.34;95761.94;5081801;28;20028;-74
2022/07/25 06:19:41;;;;;;;6.03;5.57;;;;;;;22.04;57.41;95767.19;5083620;28;20032;-73
2022/07/25 06:22:08;;;;;;;8.32;6.57;;;;;;;22.31;57.46;95755.50;5077776;28;20062;-71
2022/07/25 06:24:34;;;;;;;6.65;6.10;;;;;;;22.53;57.05;95761.41;5072625;28;21325;-68
2022/07/25 06:26:59;;;;;;;6.88;6.28;;;;;;;22.78;55.81;95755.25;5080510;28;20095;-67
2022/07/25 06:29:24;;;;;;;6.57;5.72;;;;;;;23.03;54.97;95749.91;5086642;28;20042;-68
2022/07/25 06:31:50;;;;;;;6.25;5.55;;;;;;;23.39;53.44;95752.06;5084944;28;20024;-66
2022/07/25 06:34:15;;;;;;;7.03;6.43;;;;;;;23.64;51.47;95746.66;5076765;28;20021;-68
2022/07/25 06:36:41;;;;;;;5.90;5.50;;;;;;;23.93;50.82;95746.94;5061531;28;20025;-68
2022/07/25 06:39:06;;;;;;;6.65;5.43;;;;;;;24.25;50.35;95748.63;5081731;28;20026;-68
2022/07/25 06:41:31;;;;;;;9.15;5.53;;;;;;;24.58;49.09;95736.59;5087461;28;20510;-68
2022/07/25 06:43:57;;;;;;;5.80;5.38;;;;;;;24.84;48.33;95742.66;5086882;28;20016;-69
2022/07/25 06:46:22;;;;;;;6.65;5.55;;;;;;;25.09;49.24;95744.31;5088263;28;20054;-68
2022/07/25 06:48:48;;;;;;;6.80;5.65;;;;;;;25.40;49.14;95743.16;5085745;28;20403;-69
2022/07/25 06:51:13;;;;;;;6.80;5.22;;;;;;;25.79;49.02;95739.97;5069830;28;20112;-70
2022/07/25 06:53:39;;;;;;;6.78;5.18;;;;;;;26.18;46.23;95739.44;5064229;28;20584;-69
2022/07/25 06:56:05;;;;;;;6.15;5.65;;;;;;;26.38;45.69;95746.28;5064317;28;20036;-71
2022/07/25 06:58:30;;;;;;;4.97;4.68;;;;;;;26.53;44.56;95741.16;5068644;28;20040;-70
2022/07/25 07:00:55;;;;;;;5.25;4.78;;;;;;;27.07;43.07;95747.22;5069537;28;20027;-70
2022/07/25 07:03:22;;;;;;;6.40;5.05;;;;;;;27.40;42.66;95743.69;5064942;28;20106;-70
2022/07/25 07:05:47;;;;;;;7.45;5.15;;;;;;;27.65;41.54;95739.72;5057872;28;20519;-70
2022/07/25 07:08:13;;;;;;;5.10;4.72;;;;;;;27.91;41.23;95742.75;5054611;28;20143;-70
2022/07/25 07:10:39;;;;;;;5.45;4.88;;;;;;;28.08;40.80;95741.88;5069775;28;20150;-71
2022/07/25 07:13:14;;;;;;;6.03;5.45;;;;;;;28.34;39.09;95732.19;5069954;28;20029;-70
2022/07/25 07:15:43;;;;;;;4.78;4.45;;;;;;;28.60;37.44;95722.44;5069804;28;20033;-71
2022/07/25 07:18:09;;;;;;;4.88;4.43;;;;;;;28.78;38.04;95720.41;5073959;28;20096;-70
2022/07/25 07:20:34;;;;;;;4.80;4.50;;;;;;;28.88;37.81;95722.44;5069634;28;20123;-71
2022/07/25 07:23:00;;;;;;;6.93;4.72;;;;;;;29.13;36.84;95715.56;5070308;28;20444;-71
2022/07/25 07:25:25;;;;;;;7.50;5.22;;;;;;;29.39;36.91;95721.16;5082637;28;20024;-71
2022/07/25 07:27:51;;;;;;;5.22;4.82;;;;;;;29.52;36.00;95715.31;5070192;28;20033;-71
2022/07/25 07:30:17;;;;;;;4.70;4.40;;;;;;;29.95;35.73;95719.88;5069551;28;20048;-71
2022/07/25 07:32:42;;;;;;;8.02;4.80;;;;;;;30.15;34.46;95721.84;5069778;28;20031;-71
2022/07/25 07:35:10;;;;;;;7.18;4.72;;;;;;;30.16;35.20;95715.34;5069063;28;20029;-71
2022/07/25 07:37:35;;;;;;;5.68;4.63;;;;;;;30.13;34.12;95718.59;5069832;28;20435;-71
2022/07/25 07:40:01;;;;;;;5.18;4.78;;;;;;;30.24;34.67;95709.41;5069938;28;20029;-71
2022/07/25 07:42:26;;;;;;;4.88;4.40;;;;;;;30.41;33.56;95721.94;5069391;28;20074;-70
2022/07/25 07:44:51;;;;;;;4.82;4.53;;;;;;;30.56;33.30;95713.00;5070103;28;20111;-71
2022/07/25 07:47:17;;;;;;;4.93;4.40;;;;;;;30.79;33.16;95714.41;5069507;28;20488;-71
2022/07/25 07:49:42;;;;;;;6.03;4.68;;;;;;;30.92;32.89;95718.47;5069811;28;20039;-71
2022/07/25 07:52:08;;;;;;;8.73;4.85;;;;;;;31.29;32.75;95716.59;5069356;28;20016;-70
2022/07/25 07:57:17;;;;;;;6.53;4.60;;;;;;;31.59;31.20;95710.25;5069292;28;20056;-72
2022/07/25 07:59:42;;;;;;;5.47;4.38;;;;;;;31.72;31.87;95714.31;5068611;28;20032;-72
2022/07/25 08:02:08;;;;;;;4.45;4.13;;;;;;;32.08;31.32;95716.13;5069101;28;20124;-69
2022/07/25 08:04:33;;;;;;;4.88;4.45;;;;;;;31.99;30.97;95713.16;5068224;28;20024;-71
2022/07/25 08:06:59;;;;;;;4.30;4.00;;;;;;;32.58;29.92;95710.66;5069304;28;20067;-70
2022/07/25 08:09:24;;;;;;;4.40;4.05;;;;;;;33.07;28.94;95708.16;5069085;28;20091;-69
2022/07/25 08:11:51;;;;;;;4.47;4.18;;;;;;;32.88;30.00;95710.75;5069607;28;20437;-69
2022/07/25 08:14:16;;;;;;;6.75;4.47;;;;;;;32.81;29.19;95711.03;5069265;28;20510;-72
2022/07/25 08:16:42;;;;;;;4.20;3.80;;;;;;;32.88;29.41;95704.47;5069327;28;20056;-70
2022/07/25 08:19:07;;;;;;;4.22;3.88;;;;;;;33.28;29.15;95710.69;5069209;28;20071;-70
2022/07/25 08:21:33;;;;;;;5.30;4.22;;;;;;;33.26;28.11;95704.69;5069053;28;20028;-72
2022/07/25 08:23:58;;;;;;;7.15;4.13;;;;;;;33.02;28.12;95710.91;5078041;28;20059;-70
2022/07/25 08:26:26;;;;;;;3.83;3.63;;;;;;;33.49;27.87;95707.78;5073975;28;20029;-71
2022/07/25 08:28:52;;;;;;;4.65;3.92;;;;;;;33.36;29.29;95714.69;5069475;28;20035;-69
2022/07/25 08:31:17;;;;;;;4.95;4.22;;;;;;;33.64;28.80;95704.88;5069150;28;20028;-70
2022/07/25 08:33:43;;;;;;;5.15;3.90;;;;;;;34.07;28.12;95706.88;5051222;28;20032;-70
2022/07/25 08:36:10;;;;;;;3.95;3.65;;;;;;;33.94;27.63;95704.81;5051398;28;20123;-70
2022/07/25 08:38:35;;;;;;;3.95;3.72;;;;;;;34.03;27.61;95708.53;5068989;28;20074;-70
2022/07/25 08:41:01;;;;;;;4.20;3.90;;;;;;;34.04;26.35;95709.38;5068936;28;20037;-70
2022/07/25 08:43:30;;;;;;;4.53;3.70;;;;;;;33.72;26.85;95700.72;5084755;28;20455;-70
2022/07/25 08:45:58;;;;;;;5.03;3.78;;;;;;;33.45;27.39;95698.53;5069537;28;20412;-70
2022/07/25 08:48:25;;;;;;;4.15;3.55;;;;;;;33.42;27.21;95708.94;5087878;28;20046;-70
2022/07/25 08:50:51;;;;;;;4.55;4.15;;;;;;;33.61;25.07;95699.22;5072574;28;20044;-70
2022/07/25 08:53:19;;;;;;;3.83;3.60;;;;;;;33.27;26.79;95706.31;5072598;28;20028;-70
2022/07/25 08:55:45;;;;;;;4.20;3.90;;;;;;;33.50;25.63;95703.97;5072643;28;20029;-71
2022/07/25 08:58:17;;;;;;;3.72;3.50;;;;;;;34.09;24.44;95699.19;5072407;28;20049;-71
2022/07/25 09:00:44;;;;;;;4.72;4.07;;;;;;;33.67;25.31;95703.50;5072289;28;20080;-71
2022/07/25 09:03:10;;;;;;;4.10;3.63;;;;;;;33.13;25.35;95707.00;5072488;28;20039;-71
2022/07/25 09:05:36;;;;;;;4.00;3.70;;;;;;;33.34;26.00;95712.28;5072152;28;20550;-71
2022/07/25 09:08:09;;;;;;;4.30;4.00;;;;;;;33.50;25.68;95698.50;5072287;28;20103;-71
2022/07/25 09:10:35;;;;;;;6.18;4.10;;;;;;;33.57;26.02;95698.97;5072187;28;20040;-71
2022/07/25 09:13:15;;;;;;;4.30;3.90;;;;;;;33.70;25.64;95700.19;5072600;28;20050;-71
2022/07/25 09:15:47;;;;;;;4.30;4.00;;;;;;;33.57;25.62;95701.69;5072100;28;20438;-71
2022/07/25 09:18:14;;;;;;;4.00;3.70;;;;;;;33.85;24.37;95699.19;5072164;28;20502;-71
2022/07/25 09:20:42;;;;;;;3.85;3.60;;;;;;;33.82;24.57;95700.59;5071970;28;20017;-72
2022/07/25 09:23:10;;;;;;;6.95;3.78;;;;;;;33.86;24.58;95701.63;5073656;28;20040;-72
2022/07/25 09:25:35;;;;;;;5.50;4.10;;;;;;;34.17;24.64;95705.09;5083327;28;20074;-72
2022/07/25 09:28:11;;;;;;;4.25;3.95;;;;;;;34.31;23.72;95697.81;5072206;28;20032;-72
2022/07/25 09:30:38;;;;;;;3.95;3.60;;;;;;;34.10;24.17;95702.72;5072010;28;20108;-72
2022/07/25 09:33:04;;;;;;;3.60;3.30;;;;;;;34.25;25.17;95701.72;5071741;28;20479;-71
2022/07/25 09:35:37;;;;;;;3.72;3.42;;;;;;;34.80;23.54;95701.19;5072036;28;20075;-72
2022/07/25 09:38:10;;;;;;;5.00;3.80;;;;;;;34.68;23.75;95698.94;5072086;28;20036;-72
2022/07/25 09:40:36;;;;;;;4.00;3.70;;;;;;;34.59;23.37;95697.97;5058116;28;20024;-71
2022/07/25 09:43:01;;;;;;;3.78;3.58;;;;;;;35.15;23.10;95703.69;5071996;28;20031;-71
2022/07/25 09:45:26;;;;;;;3.83;3.53;;;;;;;35.31;22.56;95704.22;5071519;28;20085;-71
2022/07/25 09:48:00;;;;;;;5.95;3.80;;;;;;;35.22;22.82;95712.31;5071650;28;20017;-72
2022/07/25 09:50:27;;;;;;;8.93;4.03;;;;;;;35.28;23.13;95710.31;5071483;28;20119;-72
2022/07/25 09:52:57;;;;;;;6.63;3.58;;;;;;;35.31;22.74;95714.34;5071531;28;20415;-72
2022/07/25 09:55:23;;;;;;;3.75;3.50;;;;;;;35.76;22.07;95713.81;5071389;28;20028;-70
2022/07/25 09:57:49;;;;;;;3.85;3.55;;;;;;;35.34;22.50;95711.81;5071105;28;20037;-69
2022/07/25 10:00:19;;;;;;;4.25;3.88;;;;;;;35.92;22.26;95709.63;5070611;28;20471;-70
2022/07/25 10:02:48;;;;;;;3.95;3.65;;;;;;;35.81;22.06;95716.44;5071288;28;20033;-69
2022/07/25 10:05:19;;;;;;;3.60;3.30;;;;;;;36.18;22.12;95708.34;5071261;28;20024;-69
2022/07/25 10:07:48;;;;;;;3.75;3.42;;;;;;;36.65;20.45;95705.41;5071133;28;20028;-70
2022/07/25 10:10:38;;;;;;;3.90;3.60;;;;;;;36.30;20.86;95705.06;5071123;28;20028;-70
2022/07/25 10:13:04;;;;;;;3.53;3.22;;;;;;;36.10;21.03;95697.00;5065557;28;20036;-70
2022/07/25 10:15:47;;;;;;;3.97;3.63;;;;;;;36.36;20.40;95698.34;5071179;28;20405;-70
2022/07/25 10:18:14;;;;;;;3.67;3.47;;;;;;;36.42;20.94;95694.38;5059057;28;20263;-71
2022/07/25 10:20:40;;;;;;;3.75;3.47;;;;;;;36.28;20.78;95689.75;5070814;28;20049;-71
2022/07/25 10:23:23;;;;;;;4.00;3.60;;;;;;;35.99;21.46;95684.59;5072606;28;20078;-70
2022/07/25 10:26:19;;;;;;;3.25;2.90;;;;;;;36.33;20.10;95685.25;5080214;28;20020;-70
2022/07/25 10:28:46;;;;;;;3.45;3.25;;;;;;;36.38;20.73;95685.97;5062048;28;20044;-71
2022/07/25 10:31:18;;;;;;;4.00;3.60;;;;;;;36.68;20.61;95682.84;5070389;28;20033;-71
2022/07/25 10:33:57;;;;;;;4.07;3.67;;;;;;;36.25;20.59;95675.84;5070681;28;20449;-71
2022/07/25 10:36:24;;;;;;;3.70;3.40;;;;;;;37.03;20.02;95671.34;5070806;28;20545;-71
2022/07/25 10:38:51;;;;;;;3.60;3.40;;;;;;;37.24;20.39;95668.84;5070536;28;20028;-71
2022/07/25 10:41:17;;;;;;;3.67;3.38;;;;;;;37.62;20.33;95665.66;5070280;28;20529;-70
2022/07/25 10:43:45;;;;;;;3.80;3.50;;;;;;;37.61;19.90;95666.78;5070400;28;20103;-71
2022/07/25 10:46:16;;;;;;;3.30;3.10;;;;;;;38.18;18.45;95659.69;5070449;28;20491;-70
2022/07/25 10:48:41;;;;;;;4.43;3.35;;;;;;;37.83;18.97;95656.84;5052398;28;20032;-71
2022/07/25 10:51:12;;;;;;;3.60;3.40;;;;;;;37.43;19.51;95657.66;5070619;28;20032;-70
2022/07/25 10:53:44;;;;;;;3.33;3.10;;;;;;;37.47;19.30;95653.16;5070580;28;20032;-71
2022/07/25 10:56:12;;;;;;;3.50;3.28;;;;;;;37.47;18.96;95653.16;5070439;28;20099;-71
2022/07/25 10:58:45;;;;;;;3.80;3.50;;;;;;;36.82;19.08;95638.91;5070253;28;20063;-69
2022/07/25 11:01:12;;;;;;;3.78;3.50;;;;;;;36.79;19.07;95648.56;5070306;28;20031;-71
2022/07/25 11:03:43;;;;;;;3.42;3.20;;;;;;;36.90;19.59;95651.06;5070435;28;20031;-72
2022/07/25 11:06:11;;;;;;;3.78;3.47;;;;;;;36.55;20.15;95638.72;5070270;28;20020;-71
2022/07/25 11:08:36;;;;;;;4.05;3.75;;;;;;;36.95;20.27;95631.72;5070363;28;20025;-71
2022/07/25 11:11:02;;;;;;;3.95;3.30;;;;;;;36.83;20.03;95627.66;5069953;28;20029;-71
2022/07/25 11:13:27;;;;;;;4.07;3.40;;;;;;;37.24;19.27;95624.94;5070006;28;20585;-70
2022/07/25 11:15:59;;;;;;;4.25;3.70;;;;;;;37.44;20.04;95622.78;5069913;28;20032;-71
2022/07/25 11:18:41;;;;;;;3.63;3.40;;;;;;;37.46;19.67;95615.84;5069969;28;20100;-71
2022/07/25 11:21:08;;;;;;;3.60;3.40;;;;;;;37.67;19.66;95618.84;5069611;28;20063;-71
2022/07/25 11:23:34;;;;;;;3.78;3.50;;;;;;;37.88;19.01;95609.22;5075333;28;20169;-71
2022/07/25 11:26:10;;;;;;;3.70;3.50;;;;;;;37.92;20.14;95611.00;5077658;28;20024;-70
2022/07/25 11:28:37;;;;;;;3.70;3.40;;;;;;;38.06;19.09;95616.38;5069781;28;20024;-70
2022/07/25 11:31:03;;;;;;;3.70;3.40;;;;;;;37.93;19.61;95609.88;5069906;28;20476;-70
2022/07/25 11:33:29;;;;;;;3.63;3.40;;;;;;;38.04;20.06;95604.06;5069625;28;20475;-70